sensor_id;sensor_type;location;lat;lon;timestamp;temperature;humidity
8939;DHT22;4504;48.810;9.172;2023-03-04T00:02:20;4.60;99.90
8939;DHT22;4504;48.810;9.172;2023-03-04T00:04:47;4.80;99.90
8939;DHT22;4504;48.810;9.172;2023-03-04T00:07:14;4.60;99.90
8939;DHT22;4504;48.810;9.172;2023-03-04T00:09:43;4.60;99.90
8939;DHT22;4504;48.810;9.172;2023-03-04T00:12:10;4.50;99.90
8939;DHT22;4504;48.810;9.172;2023-03-04T00:14:37;4.50;99.90
8939;DHT22;4504;48.810;9.172;2023-03-04T00:17:06;4.50;99.90
8939;DHT22;4504;48.810;9.172;2023-03-04T00:19:33;4.50;99.90
8939;DHT22;4504;48.810;9.172;2023-03-04T00:22:00;4.60;99.90
8939;DHT22;4504;48.810;9.172;2023-03-04T00:24:28;4.60;99.90
8939;DHT22;4504;48.810;9.172;2023-03-04T00:26:55;4.60;99.90
8939;DHT22;4504;48.810;9.172;2023-03-04T00:29:22;4.50;99.90
8939;DHT22;4504;48.810;9.172;2023-03-04T00:31:49;4.50;99.90
8939;DHT22;4504;48.810;9.172;2023-03-04T00:34:18;4.50;99.90
8939;DHT22;4504;48.810;9.172;2023-03-04T00:36:45;4.50;99.90
8939;DHT22;4504;48.810;9.172;2023-03-04T00:39:12;4.40;99.90
8939;DHT22;4504;48.810;9.172;2023-03-04T00:41:39;4.40;99.90
8939;DHT22;4504;48.810;9.172;2023-03-04T00:44:07;4.40;99.90
8939;DHT22;4504;48.810;9.172;2023-03-04T00:46:34;4.40;99.90
8939;DHT22;4504;48.810;9.172;2023-03-04T00:49:01;4.30;99.90
8939;DHT22;4504;48.810;9.172;2023-03-04T00:51:29;4.20;99.90
8939;DHT22;4504;48.810;9.172;2023-03-04T00:53:56;4.20;99.90
8939;DHT22;4504;48.810;9.172;2023-03-04T00:56:23;4.20;99.90
8939;DHT22;4504;48.810;9.172;2023-03-04T00:58:50;4.10;99.90
8939;DHT22;4504;48.810;9.172;2023-03-04T01:01:17;4.10;99.90
8939;DHT22;4504;48.810;9.172;2023-03-04T01:03:44;4.10;99.90
8939;DHT22;4504;48.810;9.172;2023-03-04T01:06:11;4.10;99.90
8939;DHT22;4504;48.810;9.172;2023-03-04T01:08:39;4.10;99.90
8939;DHT22;4504;48.810;9.172;2023-03-04T01:11:07;4.10;99.90
8939;DHT22;4504;48.810;9.172;2023-03-04T01:13:34;4.10;99.90
8939;DHT22;4504;48.810;9.172;2023-03-04T01:16:01;4.00;99.90
8939;DHT22;4504;48.810;9.172;2023-03-04T01:18:31;4.00;99.90
8939;DHT22;4504;48.810;9.172;2023-03-04T01:20:58;4.00;99.90
8939;DHT22;4504;48.810;9.172;2023-03-04T01:23:28;3.90;99.90
8939;DHT22;4504;48.810;9.172;2023-03-04T01:25:57;3.90;99.90
8939;DHT22;4504;48.810;9.172;2023-03-04T01:28:24;3.90;99.90
8939;DHT22;4504;48.810;9.172;2023-03-04T01:30:51;3.90;99.90
8939;DHT22;4504;48.810;9.172;2023-03-04T01:33:18;3.90;99.90
8939;DHT22;4504;48.810;9.172;2023-03-04T01:35:45;3.90;99.90
8939;DHT22;4504;48.810;9.172;2023-03-04T01:38:12;3.80;99.90
8939;DHT22;4504;48.810;9.172;2023-03-04T01:40:39;3.70;99.90
8939;DHT22;4504;48.810;9.172;2023-03-04T01:43:11;3.70;99.90
8939;DHT22;4504;48.810;9.172;2023-03-04T01:45:41;3.60;99.90
8939;DHT22;4504;48.810;9.172;2023-03-04T01:48:09;3.60;99.90
8939;DHT22;4504;48.810;9.172;2023-03-04T01:50:37;3.60;99.90
8939;DHT22;4504;48.810;9.172;2023-03-04T01:53:05;3.60;99.90
8939;DHT22;4504;48.810;9.172;2023-03-04T01:55:32;3.50;99.90
8939;DHT22;4504;48.810;9.172;2023-03-04T01:57:59;3.50;99.90
8939;DHT22;4504;48.810;9.172;2023-03-04T02:00:29;3.40;99.90
8939;DHT22;4504;48.810;9.172;2023-03-04T02:02:59;3.40;99.90
8939;DHT22;4504;48.810;9.172;2023-03-04T02:05:27;3.50;99.90
8939;DHT22;4504;48.810;9.172;2023-03-04T02:07:56;3.40;99.90
8939;DHT22;4504;48.810;9.172;2023-03-04T02:10:24;3.30;99.90
8939;DHT22;4504;48.810;9.172;2023-03-04T02:12:51;3.30;99.90
8939;DHT22;4504;48.810;9.172;2023-03-04T02:15:19;3.30;99.90
8939;DHT22;4504;48.810;9.172;2023-03-04T02:17:47;3.30;99.90
8939;DHT22;4504;48.810;9.172;2023-03-04T02:20:22;3.20;99.90
8939;DHT22;4504;48.810;9.172;2023-03-04T02:22:56;3.20;99.90
8939;DHT22;4504;48.810;9.172;2023-03-04T02:25:32;3.10;99.90
8939;DHT22;4504;48.810;9.172;2023-03-04T02:28:01;3.20;99.90
8939;DHT22;4504;48.810;9.172;2023-03-04T02:30:28;3.00;99.90
8939;DHT22;4504;48.810;9.172;2023-03-04T02:32:55;3.00;99.90
8939;DHT22;4504;48.810;9.172;2023-03-04T02:35:22;3.00;99.90
8939;DHT22;4504;48.810;9.172;2023-03-04T02:37:49;2.90;99.90
8939;DHT22;4504;48.810;9.172;2023-03-04T02:40:22;2.90;99.90
8939;DHT22;4504;48.810;9.172;2023-03-04T02:42:50;2.80;99.90
8939;DHT22;4504;48.810;9.172;2023-03-04T02:45:38;2.80;99.90
8939;DHT22;4504;48.810;9.172;2023-03-04T02:48:07;2.70;99.90
8939;DHT22;4504;48.810;9.172;2023-03-04T02:50:37;2.60;99.90
8939;DHT22;4504;48.810;9.172;2023-03-04T02:53:05;2.60;99.90
8939;DHT22;4504;48.810;9.172;2023-03-04T02:55:32;2.50;99.90
8939;DHT22;4504;48.810;9.172;2023-03-04T02:57:59;2.40;99.90
8939;DHT22;4504;48.810;9.172;2023-03-04T03:00:27;2.50;99.90
8939;DHT22;4504;48.810;9.172;2023-03-04T03:02:55;2.50;99.90
8939;DHT22;4504;48.810;9.172;2023-03-04T03:05:24;2.40;99.90
8939;DHT22;4504;48.810;9.172;2023-03-04T03:07:53;2.50;99.90
8939;DHT22;4504;48.810;9.172;2023-03-04T03:10:22;2.60;99.90
8939;DHT22;4504;48.810;9.172;2023-03-04T03:12:49;2.50;99.90
8939;DHT22;4504;48.810;9.172;2023-03-04T03:15:17;2.50;99.90
8939;DHT22;4504;48.810;9.172;2023-03-04T03:17:44;2.50;99.90
8939;DHT22;4504;48.810;9.172;2023-03-04T03:20:15;2.50;99.90
8939;DHT22;4504;48.810;9.172;2023-03-04T03:22:42;2.50;99.90
8939;DHT22;4504;48.810;9.172;2023-03-04T03:25:11;2.50;99.90
8939;DHT22;4504;48.810;9.172;2023-03-04T03:27:39;2.50;99.90
8939;DHT22;4504;48.810;9.172;2023-03-04T03:30:09;2.50;99.90
8939;DHT22;4504;48.810;9.172;2023-03-04T03:32:36;2.50;99.90
8939;DHT22;4504;48.810;9.172;2023-03-04T03:35:04;2.50;99.90
8939;DHT22;4504;48.810;9.172;2023-03-04T03:37:32;2.40;99.90
8939;DHT22;4504;48.810;9.172;2023-03-04T03:39:59;2.40;99.90
8939;DHT22;4504;48.810;9.172;2023-03-04T03:42:26;2.40;99.90
8939;DHT22;4504;48.810;9.172;2023-03-04T03:44:53;2.40;99.90
8939;DHT22;4504;48.810;9.172;2023-03-04T03:47:21;2.40;99.90
8939;DHT22;4504;48.810;9.172;2023-03-04T03:49:48;2.40;99.90
8939;DHT22;4504;48.810;9.172;2023-03-04T03:52:15;2.40;99.90
8939;DHT22;4504;48.810;9.172;2023-03-04T03:54:43;2.40;99.90
8939;DHT22;4504;48.810;9.172;2023-03-04T03:57:10;2.40;99.90
8939;DHT22;4504;48.810;9.172;2023-03-04T03:59:37;2.40;99.90
8939;DHT22;4504;48.810;9.172;2023-03-04T04:02:04;2.40;99.90
8939;DHT22;4504;48.810;9.172;2023-03-04T04:04:31;2.40;99.90
8939;DHT22;4504;48.810;9.172;2023-03-04T04:06:58;2.40;99.90
8939;DHT22;4504;48.810;9.172;2023-03-04T04:09:25;2.30;99.90
8939;DHT22;4504;48.810;9.172;2023-03-04T04:11:53;2.30;99.90
8939;DHT22;4504;48.810;9.172;2023-03-04T04:14:20;2.40;99.90
8939;DHT22;4504;48.810;9.172;2023-03-04T04:16:47;2.40;99.90
8939;DHT22;4504;48.810;9.172;2023-03-04T04:19:19;2.40;99.90
8939;DHT22;4504;48.810;9.172;2023-03-04T04:21:46;2.40;99.90
8939;DHT22;4504;48.810;9.172;2023-03-04T04:24:13;2.40;99.90
8939;DHT22;4504;48.810;9.172;2023-03-04T04:26:40;2.30;99.90
8939;DHT22;4504;48.810;9.172;2023-03-04T04:29:12;2.30;99.90
8939;DHT22;4504;48.810;9.172;2023-03-04T04:31:39;2.30;99.90
8939;DHT22;4504;48.810;9.172;2023-03-04T04:34:07;2.30;99.90
8939;DHT22;4504;48.810;9.172;2023-03-04T04:36:34;2.30;99.90
8939;DHT22;4504;48.810;9.172;2023-03-04T04:39:02;2.30;99.90
8939;DHT22;4504;48.810;9.172;2023-03-04T04:41:31;2.30;99.90
8939;DHT22;4504;48.810;9.172;2023-03-04T04:44:00;2.20;99.90
8939;DHT22;4504;48.810;9.172;2023-03-04T04:46:28;2.20;99.90
8939;DHT22;4504;48.810;9.172;2023-03-04T04:48:56;2.20;99.90
8939;DHT22;4504;48.810;9.172;2023-03-04T04:51:23;2.20;99.90
8939;DHT22;4504;48.810;9.172;2023-03-04T04:53:50;2.20;99.90
8939;DHT22;4504;48.810;9.172;2023-03-04T04:56:18;2.20;99.90
8939;DHT22;4504;48.810;9.172;2023-03-04T04:58:46;2.20;99.90
8939;DHT22;4504;48.810;9.172;2023-03-04T05:01:13;2.20;99.90
8939;DHT22;4504;48.810;9.172;2023-03-04T05:03:42;2.20;99.90
8939;DHT22;4504;48.810;9.172;2023-03-04T05:06:10;2.20;99.90
8939;DHT22;4504;48.810;9.172;2023-03-04T05:08:38;2.20;99.90
8939;DHT22;4504;48.810;9.172;2023-03-04T05:11:06;2.10;99.90
8939;DHT22;4504;48.810;9.172;2023-03-04T05:13:33;2.00;99.90
8939;DHT22;4504;48.810;9.172;2023-03-04T05:16:00;2.00;99.90
8939;DHT22;4504;48.810;9.172;2023-03-04T05:18:27;1.90;99.90
8939;DHT22;4504;48.810;9.172;2023-03-04T05:20:57;1.90;99.90
8939;DHT22;4504;48.810;9.172;2023-03-04T05:23:25;1.90;99.90
8939;DHT22;4504;48.810;9.172;2023-03-04T05:25:53;1.90;99.90
8939;DHT22;4504;48.810;9.172;2023-03-04T05:28:19;1.90;99.90
8939;DHT22;4504;48.810;9.172;2023-03-04T05:30:47;1.80;99.90
8939;DHT22;4504;48.810;9.172;2023-03-04T05:33:15;1.80;99.90
8939;DHT22;4504;48.810;9.172;2023-03-04T05:35:43;1.80;99.90
8939;DHT22;4504;48.810;9.172;2023-03-04T05:38:13;1.80;99.90
8939;DHT22;4504;48.810;9.172;2023-03-04T05:40:41;1.90;99.90
8939;DHT22;4504;48.810;9.172;2023-03-04T05:43:09;1.90;99.90
8939;DHT22;4504;48.810;9.172;2023-03-04T05:45:36;1.90;99.90
8939;DHT22;4504;48.810;9.172;2023-03-04T05:48:04;1.80;99.90
8939;DHT22;4504;48.810;9.172;2023-03-04T05:50:31;1.80;99.90
8939;DHT22;4504;48.810;9.172;2023-03-04T05:52:58;1.70;99.90
8939;DHT22;4504;48.810;9.172;2023-03-04T05:55:26;1.70;99.90
8939;DHT22;4504;48.810;9.172;2023-03-04T05:57:55;1.70;99.90
8939;DHT22;4504;48.810;9.172;2023-03-04T06:00:22;1.60;99.90
8939;DHT22;4504;48.810;9.172;2023-03-04T06:02:49;1.60;99.90
8939;DHT22;4504;48.810;9.172;2023-03-04T06:05:16;1.60;99.90
8939;DHT22;4504;48.810;9.172;2023-03-04T06:07:43;1.50;99.90
8939;DHT22;4504;48.810;9.172;2023-03-04T06:10:13;1.50;99.90
8939;DHT22;4504;48.810;9.172;2023-03-04T06:12:42;1.60;99.90
8939;DHT22;4504;48.810;9.172;2023-03-04T06:15:09;1.60;99.90
8939;DHT22;4504;48.810;9.172;2023-03-04T06:17:37;1.60;99.90
8939;DHT22;4504;48.810;9.172;2023-03-04T06:20:05;1.50;99.90
8939;DHT22;4504;48.810;9.172;2023-03-04T06:22:32;1.40;99.90
8939;DHT22;4504;48.810;9.172;2023-03-04T06:25:00;1.30;99.90
8939;DHT22;4504;48.810;9.172;2023-03-04T06:27:27;1.30;99.90
8939;DHT22;4504;48.810;9.172;2023-03-04T06:29:55;1.30;99.90
8939;DHT22;4504;48.810;9.172;2023-03-04T06:32:22;1.30;99.90
8939;DHT22;4504;48.810;9.172;2023-03-04T06:34:49;1.30;99.90
8939;DHT22;4504;48.810;9.172;2023-03-04T06:37:16;1.30;99.90
8939;DHT22;4504;48.810;9.172;2023-03-04T06:39:43;1.30;99.90
8939;DHT22;4504;48.810;9.172;2023-03-04T06:42:10;1.20;99.90
8939;DHT22;4504;48.810;9.172;2023-03-04T06:44:37;1.20;99.90
8939;DHT22;4504;48.810;9.172;2023-03-04T06:47:06;1.20;99.90
8939;DHT22;4504;48.810;9.172;2023-03-04T06:49:33;1.20;99.90
8939;DHT22;4504;48.810;9.172;2023-03-04T06:52:00;1.20;99.90
8939;DHT22;4504;48.810;9.172;2023-03-04T06:54:26;1.20;99.90
8939;DHT22;4504;48.810;9.172;2023-03-04T06:56:53;1.30;99.90
8939;DHT22;4504;48.810;9.172;2023-03-04T06:59:20;1.30;99.90
8939;DHT22;4504;48.810;9.172;2023-03-04T07:01:47;1.30;99.90
8939;DHT22;4504;48.810;9.172;2023-03-04T07:04:16;1.30;99.90
8939;DHT22;4504;48.810;9.172;2023-03-04T07:06:42;1.40;99.90
8939;DHT22;4504;48.810;9.172;2023-03-04T07:09:09;1.40;99.90
8939;DHT22;4504;48.810;9.172;2023-03-04T07:11:36;1.40;99.90
8939;DHT22;4504;48.810;9.172;2023-03-04T07:14:03;1.50;99.90
8939;DHT22;4504;48.810;9.172;2023-03-04T07:16:30;1.50;99.90
8939;DHT22;4504;48.810;9.172;2023-03-04T07:18:57;1.50;99.90
8939;DHT22;4504;48.810;9.172;2023-03-04T07:21:26;1.50;99.90
8939;DHT22;4504;48.810;9.172;2023-03-04T07:23:53;1.60;99.90
8939;DHT22;4504;48.810;9.172;2023-03-04T07:26:20;1.70;99.90
8939;DHT22;4504;48.810;9.172;2023-03-04T07:28:47;1.70;99.90
8939;DHT22;4504;48.810;9.172;2023-03-04T07:31:21;1.70;99.90
8939;DHT22;4504;48.810;9.172;2023-03-04T07:33:48;1.60;99.90
8939;DHT22;4504;48.810;9.172;2023-03-04T07:36:15;1.60;99.90
8939;DHT22;4504;48.810;9.172;2023-03-04T07:38:46;1.60;99.90
8939;DHT22;4504;48.810;9.172;2023-03-04T07:41:14;1.60;99.90
8939;DHT22;4504;48.810;9.172;2023-03-04T07:43:41;1.60;99.90
8939;DHT22;4504;48.810;9.172;2023-03-04T07:46:08;1.60;99.90
8939;DHT22;4504;48.810;9.172;2023-03-04T07:48:36;1.60;99.90
8939;DHT22;4504;48.810;9.172;2023-03-04T07:51:05;1.60;99.90
8939;DHT22;4504;48.810;9.172;2023-03-04T07:53:33;1.70;99.90
8939;DHT22;4504;48.810;9.172;2023-03-04T07:56:01;1.70;99.90
8939;DHT22;4504;48.810;9.172;2023-03-04T07:58:29;1.70;99.90
8939;DHT22;4504;48.810;9.172;2023-03-04T08:00:56;1.60;99.90
8939;DHT22;4504;48.810;9.172;2023-03-04T08:03:23;1.60;99.90
8939;DHT22;4504;48.810;9.172;2023-03-04T08:05:50;1.60;99.90
8939;DHT22;4504;48.810;9.172;2023-03-04T08:08:17;1.50;99.90
8939;DHT22;4504;48.810;9.172;2023-03-04T08:10:44;1.60;99.90
8939;DHT22;4504;48.810;9.172;2023-03-04T08:13:12;1.60;99.90
8939;DHT22;4504;48.810;9.172;2023-03-04T08:15:40;1.70;99.90
8939;DHT22;4504;48.810;9.172;2023-03-04T08:18:08;1.70;99.90
8939;DHT22;4504;48.810;9.172;2023-03-04T08:20:35;1.70;99.90
8939;DHT22;4504;48.810;9.172;2023-03-04T08:23:02;1.70;99.90
8939;DHT22;4504;48.810;9.172;2023-03-04T08:25:29;1.70;99.90
8939;DHT22;4504;48.810;9.172;2023-03-04T08:27:56;1.80;99.90
8939;DHT22;4504;48.810;9.172;2023-03-04T08:30:24;1.80;99.90
8939;DHT22;4504;48.810;9.172;2023-03-04T08:32:51;1.80;99.90
8939;DHT22;4504;48.810;9.172;2023-03-04T08:35:18;1.90;99.90
8939;DHT22;4504;48.810;9.172;2023-03-04T08:37:45;1.90;99.90
8939;DHT22;4504;48.810;9.172;2023-03-04T08:40:13;2.00;99.90
8939;DHT22;4504;48.810;9.172;2023-03-04T08:42:40;2.00;99.90
8939;DHT22;4504;48.810;9.172;2023-03-04T08:45:08;2.00;99.90
8939;DHT22;4504;48.810;9.172;2023-03-04T08:47:37;2.00;99.90
8939;DHT22;4504;48.810;9.172;2023-03-04T08:50:06;2.00;99.90
8939;DHT22;4504;48.810;9.172;2023-03-04T08:52:33;2.00;99.90
8939;DHT22;4504;48.810;9.172;2023-03-04T08:55:00;2.00;99.90
8939;DHT22;4504;48.810;9.172;2023-03-04T08:57:27;2.10;99.90
8939;DHT22;4504;48.810;9.172;2023-03-04T08:59:54;2.10;99.90
8939;DHT22;4504;48.810;9.172;2023-03-04T09:02:21;2.10;99.90
8939;DHT22;4504;48.810;9.172;2023-03-04T09:04:49;2.20;99.90
8939;DHT22;4504;48.810;9.172;2023-03-04T09:07:17;2.30;99.90
8939;DHT22;4504;48.810;9.172;2023-03-04T09:09:43;2.30;99.90
8939;DHT22;4504;48.810;9.172;2023-03-04T09:12:11;2.30;99.90
8939;DHT22;4504;48.810;9.172;2023-03-04T09:14:37;2.30;99.90
8939;DHT22;4504;48.810;9.172;2023-03-04T09:17:05;2.40;99.90
8939;DHT22;4504;48.810;9.172;2023-03-04T09:19:32;2.40;99.90
8939;DHT22;4504;48.810;9.172;2023-03-04T09:22:00;2.40;99.90
8939;DHT22;4504;48.810;9.172;2023-03-04T09:24:27;2.50;99.90
8939;DHT22;4504;48.810;9.172;2023-03-04T09:26:54;2.50;99.90
8939;DHT22;4504;48.810;9.172;2023-03-04T09:29:21;2.60;99.90
8939;DHT22;4504;48.810;9.172;2023-03-04T09:31:49;2.60;99.90
8939;DHT22;4504;48.810;9.172;2023-03-04T09:34:16;2.60;99.90
8939;DHT22;4504;48.810;9.172;2023-03-04T09:36:43;2.60;99.90
8939;DHT22;4504;48.810;9.172;2023-03-04T09:39:11;2.60;99.90
8939;DHT22;4504;48.810;9.172;2023-03-04T09:41:41;2.60;99.90
8939;DHT22;4504;48.810;9.172;2023-03-04T09:44:19;2.70;99.90
8939;DHT22;4504;48.810;9.172;2023-03-04T09:46:48;2.70;99.90
8939;DHT22;4504;48.810;9.172;2023-03-04T09:49:17;2.70;99.90
8939;DHT22;4504;48.810;9.172;2023-03-04T09:51:54;2.70;99.90
8939;DHT22;4504;48.810;9.172;2023-03-04T09:54:35;2.80;99.90
8939;DHT22;4504;48.810;9.172;2023-03-04T09:57:19;2.90;99.90
8939;DHT22;4504;48.810;9.172;2023-03-04T09:59:52;2.90;99.90
8939;DHT22;4504;48.810;9.172;2023-03-04T10:02:24;3.00;99.90
8939;DHT22;4504;48.810;9.172;2023-03-04T10:04:58;3.00;99.90
8939;DHT22;4504;48.810;9.172;2023-03-04T10:07:30;3.00;99.90
8939;DHT22;4504;48.810;9.172;2023-03-04T10:10:03;3.10;99.90
8939;DHT22;4504;48.810;9.172;2023-03-04T10:12:33;3.10;99.90
8939;DHT22;4504;48.810;9.172;2023-03-04T10:15:04;3.10;99.90
8939;DHT22;4504;48.810;9.172;2023-03-04T10:17:35;3.10;99.90
8939;DHT22;4504;48.810;9.172;2023-03-04T10:20:04;3.20;99.90
8939;DHT22;4504;48.810;9.172;2023-03-04T10:22:35;3.10;99.90
8939;DHT22;4504;48.810;9.172;2023-03-04T10:25:16;3.10;99.90
8939;DHT22;4504;48.810;9.172;2023-03-04T10:27:56;3.20;99.90
8939;DHT22;4504;48.810;9.172;2023-03-04T10:30:36;3.20;99.90
8939;DHT22;4504;48.810;9.172;2023-03-04T10:33:11;3.20;99.90
8939;DHT22;4504;48.810;9.172;2023-03-04T10:35:39;3.30;99.90
8939;DHT22;4504;48.810;9.172;2023-03-04T10:38:09;3.30;99.90
8939;DHT22;4504;48.810;9.172;2023-03-04T10:40:40;3.30;99.90
8939;DHT22;4504;48.810;9.172;2023-03-04T10:43:14;3.40;99.90
8939;DHT22;4504;48.810;9.172;2023-03-04T10:45:41;3.50;99.90
8939;DHT22;4504;48.810;9.172;2023-03-04T10:48:19;3.50;99.90
8939;DHT22;4504;48.810;9.172;2023-03-04T10:50:46;3.40;99.90
8939;DHT22;4504;48.810;9.172;2023-03-04T10:53:31;3.40;99.90
8939;DHT22;4504;48.810;9.172;2023-03-04T10:56:00;3.50;99.90
8939;DHT22;4504;48.810;9.172;2023-03-04T10:58:28;3.50;99.90
8939;DHT22;4504;48.810;9.172;2023-03-04T11:01:00;3.60;99.90
8939;DHT22;4504;48.810;9.172;2023-03-04T11:03:31;3.60;99.90
8939;DHT22;4504;48.810;9.172;2023-03-04T11:06:09;3.60;99.90
8939;DHT22;4504;48.810;9.172;2023-03-04T11:08:38;3.60;99.90
8939;DHT22;4504;48.810;9.172;2023-03-04T11:11:22;3.60;99.90
8939;DHT22;4504;48.810;9.172;2023-03-04T11:13:50;3.50;99.90
8939;DHT22;4504;48.810;9.172;2023-03-04T11:16:26;3.60;99.90
8939;DHT22;4504;48.810;9.172;2023-03-04T11:18:55;3.60;99.90
8939;DHT22;4504;48.810;9.172;2023-03-04T11:21:27;3.50;99.90
8939;DHT22;4504;48.810;9.172;2023-03-04T11:23:57;3.50;99.90
8939;DHT22;4504;48.810;9.172;2023-03-04T11:26:30;3.60;99.90
8939;DHT22;4504;48.810;9.172;2023-03-04T11:29:01;3.60;99.90
8939;DHT22;4504;48.810;9.172;2023-03-04T11:31:33;3.70;99.90
8939;DHT22;4504;48.810;9.172;2023-03-04T11:34:07;3.60;99.90
8939;DHT22;4504;48.810;9.172;2023-03-04T11:36:48;3.60;99.90
8939;DHT22;4504;48.810;9.172;2023-03-04T11:39:25;3.70;99.90
8939;DHT22;4504;48.810;9.172;2023-03-04T11:41:59;3.60;99.90
8939;DHT22;4504;48.810;9.172;2023-03-04T11:44:28;3.60;99.90
8939;DHT22;4504;48.810;9.172;2023-03-04T11:47:05;3.60;99.90
8939;DHT22;4504;48.810;9.172;2023-03-04T11:49:57;3.60;99.90
8939;DHT22;4504;48.810;9.172;2023-03-04T11:52:39;3.60;99.90
8939;DHT22;4504;48.810;9.172;2023-03-04T11:55:24;3.60;99.90
8939;DHT22;4504;48.810;9.172;2023-03-04T11:58:03;3.50;99.90
8939;DHT22;4504;48.810;9.172;2023-03-04T12:00:37;3.60;99.90
8939;DHT22;4504;48.810;9.172;2023-03-04T12:03:38;3.50;99.90
8939;DHT22;4504;48.810;9.172;2023-03-04T12:06:11;3.50;99.90
8939;DHT22;4504;48.810;9.172;2023-03-04T12:09:02;3.50;99.90
8939;DHT22;4504;48.810;9.172;2023-03-04T12:11:43;3.60;99.90
8939;DHT22;4504;48.810;9.172;2023-03-04T12:14:24;3.60;99.90
8939;DHT22;4504;48.810;9.172;2023-03-04T12:17:23;3.60;99.90
8939;DHT22;4504;48.810;9.172;2023-03-04T12:20:07;3.60;99.90
8939;DHT22;4504;48.810;9.172;2023-03-04T12:22:43;3.60;99.90
8939;DHT22;4504;48.810;9.172;2023-03-04T12:25:36;3.60;99.90
8939;DHT22;4504;48.810;9.172;2023-03-04T12:28:16;3.60;99.90
8939;DHT22;4504;48.810;9.172;2023-03-04T12:31:03;3.60;99.90
8939;DHT22;4504;48.810;9.172;2023-03-04T12:33:41;3.60;99.90
8939;DHT22;4504;48.810;9.172;2023-03-04T12:36:17;3.60;99.90
8939;DHT22;4504;48.810;9.172;2023-03-04T12:38:56;3.60;99.90
8939;DHT22;4504;48.810;9.172;2023-03-04T12:41:33;3.60;99.90
8939;DHT22;4504;48.810;9.172;2023-03-04T12:44:11;3.60;99.90
8939;DHT22;4504;48.810;9.172;2023-03-04T12:49:44;3.60;99.90
8939;DHT22;4504;48.810;9.172;2023-03-04T12:52:18;3.60;99.90
8939;DHT22;4504;48.810;9.172;2023-03-04T12:54:50;3.60;99.90
8939;DHT22;4504;48.810;9.172;2023-03-04T12:57:22;3.70;99.90
8939;DHT22;4504;48.810;9.172;2023-03-04T12:59:54;3.60;99.90
8939;DHT22;4504;48.810;9.172;2023-03-04T13:02:39;3.60;99.90
8939;DHT22;4504;48.810;9.172;2023-03-04T13:05:23;3.60;99.90
8939;DHT22;4504;48.810;9.172;2023-03-04T13:07:58;3.60;99.90
8939;DHT22;4504;48.810;9.172;2023-03-04T13:10:28;3.60;99.90
8939;DHT22;4504;48.810;9.172;2023-03-04T13:12:56;3.50;99.90
8939;DHT22;4504;48.810;9.172;2023-03-04T13:15:33;3.50;99.90
8939;DHT22;4504;48.810;9.172;2023-03-04T13:18:29;3.50;99.90
8939;DHT22;4504;48.810;9.172;2023-03-04T13:21:21;3.50;99.90
8939;DHT22;4504;48.810;9.172;2023-03-04T13:23:49;3.50;99.90
8939;DHT22;4504;48.810;9.172;2023-03-04T13:26:27;3.50;99.90
8939;DHT22;4504;48.810;9.172;2023-03-04T13:31:59;3.50;99.90
8939;DHT22;4504;48.810;9.172;2023-03-04T13:34:49;3.50;99.90
8939;DHT22;4504;48.810;9.172;2023-03-04T13:37:35;3.50;99.90
8939;DHT22;4504;48.810;9.172;2023-03-04T13:40:34;3.50;99.90
8939;DHT22;4504;48.810;9.172;2023-03-04T13:43:27;3.50;99.90
8939;DHT22;4504;48.810;9.172;2023-03-04T13:45:54;3.40;99.90
8939;DHT22;4504;48.810;9.172;2023-03-04T13:48:28;3.40;99.90
8939;DHT22;4504;48.810;9.172;2023-03-04T13:50:58;3.50;99.90
8939;DHT22;4504;48.810;9.172;2023-03-04T13:53:43;3.50;99.90
8939;DHT22;4504;48.810;9.172;2023-03-04T13:56:29;3.50;99.90
8939;DHT22;4504;48.810;9.172;2023-03-04T13:59:04;3.50;99.90
8939;DHT22;4504;48.810;9.172;2023-03-04T14:01:46;3.50;99.90
8939;DHT22;4504;48.810;9.172;2023-03-04T14:04:16;3.50;99.90
8939;DHT22;4504;48.810;9.172;2023-03-04T14:06:46;3.60;99.90
8939;DHT22;4504;48.810;9.172;2023-03-04T14:09:15;3.60;99.90
8939;DHT22;4504;48.810;9.172;2023-03-04T14:11:42;3.60;99.90
8939;DHT22;4504;48.810;9.172;2023-03-04T14:14:12;3.60;99.90
8939;DHT22;4504;48.810;9.172;2023-03-04T14:16:45;3.60;99.90
8939;DHT22;4504;48.810;9.172;2023-03-04T14:19:18;3.60;99.90
8939;DHT22;4504;48.810;9.172;2023-03-04T14:21:50;3.60;99.90
8939;DHT22;4504;48.810;9.172;2023-03-04T14:24:19;3.60;99.90
8939;DHT22;4504;48.810;9.172;2023-03-04T14:26:47;3.60;99.90
8939;DHT22;4504;48.810;9.172;2023-03-04T14:29:22;3.60;99.90
8939;DHT22;4504;48.810;9.172;2023-03-04T14:31:50;3.60;99.90
8939;DHT22;4504;48.810;9.172;2023-03-04T14:34:23;3.70;99.90
8939;DHT22;4504;48.810;9.172;2023-03-04T14:36:52;3.60;99.90
8939;DHT22;4504;48.810;9.172;2023-03-04T14:39:21;3.60;99.90
8939;DHT22;4504;48.810;9.172;2023-03-04T14:41:51;3.70;99.90
8939;DHT22;4504;48.810;9.172;2023-03-04T14:44:28;3.70;99.90
8939;DHT22;4504;48.810;9.172;2023-03-04T14:47:06;3.70;99.90
8939;DHT22;4504;48.810;9.172;2023-03-04T14:49:35;3.70;99.90
8939;DHT22;4504;48.810;9.172;2023-03-04T14:52:04;3.70;99.90
8939;DHT22;4504;48.810;9.172;2023-03-04T14:54:34;3.70;99.90
8939;DHT22;4504;48.810;9.172;2023-03-04T14:57:20;3.60;99.90
8939;DHT22;4504;48.810;9.172;2023-03-04T14:59:49;3.70;99.90
8939;DHT22;4504;48.810;9.172;2023-03-04T15:02:28;3.60;99.90
8939;DHT22;4504;48.810;9.172;2023-03-04T15:04:59;3.60;99.90
8939;DHT22;4504;48.810;9.172;2023-03-04T15:07:33;3.60;99.90
8939;DHT22;4504;48.810;9.172;2023-03-04T15:10:03;3.60;99.90
8939;DHT22;4504;48.810;9.172;2023-03-04T15:12:32;3.70;99.90
8939;DHT22;4504;48.810;9.172;2023-03-04T15:15:00;3.70;99.90
8939;DHT22;4504;48.810;9.172;2023-03-04T15:17:32;3.70;99.90
8939;DHT22;4504;48.810;9.172;2023-03-04T15:20:18;3.70;99.90
8939;DHT22;4504;48.810;9.172;2023-03-04T15:23:05;3.60;99.90
8939;DHT22;4504;48.810;9.172;2023-03-04T15:25:39;3.70;99.90
8939;DHT22;4504;48.810;9.172;2023-03-04T15:28:14;3.70;99.90
8939;DHT22;4504;48.810;9.172;2023-03-04T15:30:42;3.80;99.90
8939;DHT22;4504;48.810;9.172;2023-03-04T15:33:10;3.70;99.90
8939;DHT22;4504;48.810;9.172;2023-03-04T15:35:37;3.70;99.90
8939;DHT22;4504;48.810;9.172;2023-03-04T15:38:07;3.70;99.90
8939;DHT22;4504;48.810;9.172;2023-03-04T15:40:37;3.60;99.90
8939;DHT22;4504;48.810;9.172;2023-03-04T15:43:06;3.70;99.90
8939;DHT22;4504;48.810;9.172;2023-03-04T15:45:35;3.60;99.90
8939;DHT22;4504;48.810;9.172;2023-03-04T15:48:05;3.60;99.90
8939;DHT22;4504;48.810;9.172;2023-03-04T15:50:35;3.70;99.90
8939;DHT22;4504;48.810;9.172;2023-03-04T15:53:06;3.70;99.90
8939;DHT22;4504;48.810;9.172;2023-03-04T15:55:34;3.70;99.90
8939;DHT22;4504;48.810;9.172;2023-03-04T15:58:02;3.60;99.90
8939;DHT22;4504;48.810;9.172;2023-03-04T16:00:29;3.60;99.90
8939;DHT22;4504;48.810;9.172;2023-03-04T16:02:56;3.60;99.90
8939;DHT22;4504;48.810;9.172;2023-03-04T16:05:23;3.70;99.90
8939;DHT22;4504;48.810;9.172;2023-03-04T16:07:51;3.70;99.90
8939;DHT22;4504;48.810;9.172;2023-03-04T16:10:24;3.70;99.90
8939;DHT22;4504;48.810;9.172;2023-03-04T16:12:52;3.70;99.90
8939;DHT22;4504;48.810;9.172;2023-03-04T16:15:22;3.80;99.90
8939;DHT22;4504;48.810;9.172;2023-03-04T16:17:49;3.70;99.90
8939;DHT22;4504;48.810;9.172;2023-03-04T16:20:18;3.70;99.90
8939;DHT22;4504;48.810;9.172;2023-03-04T16:22:47;3.70;99.90
8939;DHT22;4504;48.810;9.172;2023-03-04T16:25:16;3.70;99.90
8939;DHT22;4504;48.810;9.172;2023-03-04T16:27:45;3.70;99.90
8939;DHT22;4504;48.810;9.172;2023-03-04T16:30:14;3.70;99.90
8939;DHT22;4504;48.810;9.172;2023-03-04T16:32:42;3.80;99.90
8939;DHT22;4504;48.810;9.172;2023-03-04T16:35:10;3.80;99.90
8939;DHT22;4504;48.810;9.172;2023-03-04T16:37:37;3.80;99.90
8939;DHT22;4504;48.810;9.172;2023-03-04T16:40:05;3.80;99.90
8939;DHT22;4504;48.810;9.172;2023-03-04T16:42:33;3.80;99.90
8939;DHT22;4504;48.810;9.172;2023-03-04T16:45:01;3.80;99.90